createdAt,value
2023-04-10T00:01:05.501Z,98149.59
2023-04-10T00:11:07.801Z,98138.31
2023-04-10T00:21:10.302Z,98129.16
2023-04-10T00:31:12.593Z,98116.81
2023-04-10T00:41:14.887Z,98120.34
2023-04-10T00:51:17.753Z,98113.66
2023-04-10T01:01:20.036Z,98107.06
2023-04-10T01:11:43.156Z,98105.06
2023-04-10T01:21:46.419Z,98108.34
2023-04-10T01:32:01.989Z,98109.75
2023-04-10T01:42:07.589Z,98098.94
2023-04-10T01:52:11.874Z,98097.41
2023-04-10T05:05:13.192Z,98159.97
2023-04-10T05:15:15.775Z,98176.63
2023-04-10T05:25:18.176Z,98195.03
2023-04-10T05:35:20.517Z,98191.63
2023-04-10T05:45:22.883Z,98181.56
2023-04-10T05:55:25.483Z,98195.47
2023-04-10T06:05:28.040Z,98192.84
2023-04-10T06:15:30.714Z,98185.28
2023-04-10T06:25:33.079Z,98165.09
2023-04-10T06:35:36.157Z,98166.50
2023-04-10T06:45:38.596Z,98159.53
2023-04-10T06:55:41.212Z,98157.81
2023-04-10T07:05:43.911Z,98152.56
2023-04-10T07:15:46.289Z,98142.97
2023-04-10T07:25:48.615Z,98134.03
2023-04-10T07:35:51.044Z,98127.38
2023-04-10T07:45:53.450Z,98128.25
2023-04-10T07:55:55.764Z,98127.81
2023-04-10T08:05:58.082Z,98128.63
2023-04-10T08:16:00.500Z,98124.63
2023-04-10T08:26:02.812Z,98108.28
2023-04-10T08:36:06.205Z,98110.94
2023-04-10T08:46:08.641Z,98106.88
2023-04-10T08:56:14.820Z,98119.53
2023-04-10T09:06:17.167Z,98098.91
2023-04-10T09:16:29.425Z,98076.50
2023-04-10T09:26:33.836Z,98077.94
2023-04-10T09:36:41.357Z,98078.84
2023-04-10T09:46:43.823Z,98068.69
2023-04-10T09:56:48.287Z,98045.28
2023-04-10T10:06:51.049Z,98035.19
2023-04-10T10:16:58.693Z,98013.84
2023-04-10T10:27:02.812Z,98004.00
2023-04-10T10:37:06.262Z,97993.66
2023-04-10T10:47:16.658Z,97991.03
2023-04-10T10:57:46.968Z,97971.34
2023-04-10T11:08:04.405Z,97966.81
2023-04-10T11:18:06.791Z,97963.09
2023-04-10T11:28:09.165Z,97941.91
2023-04-10T11:38:13.594Z,97941.69
2023-04-10T11:48:17.585Z,97931.72
2023-04-10T11:58:27.318Z,97921.38
2023-04-10T12:08:37.771Z,97905.94
2023-04-10T12:18:40.980Z,97893.22
2023-04-10T12:28:53.386Z,97892.09
2023-04-10T12:39:00.627Z,97877.91
2023-04-10T12:49:18.971Z,97866.38
2023-04-10T12:59:22.543Z,97865.78
2023-04-10T13:09:25.950Z,97844.44
2023-04-10T13:19:28.300Z,97834.50
2023-04-10T13:29:30.824Z,97818.66
2023-04-10T13:39:33.168Z,97808.66
2023-04-10T13:49:35.504Z,97779.16
2023-04-10T13:59:37.973Z,97774.72
2023-04-10T14:09:40.998Z,97766.66
2023-04-10T14:19:43.646Z,97746.00
2023-04-10T14:29:54.379Z,97732.06
2023-04-10T14:39:57.133Z,97727.13
2023-04-10T14:49:59.465Z,97704.81
2023-04-10T15:00:02.754Z,97710.19
2023-04-10T15:10:05.673Z,97694.50
2023-04-10T15:20:08.420Z,97687.66
2023-04-10T15:30:11.267Z,97683.19
2023-04-10T15:40:13.665Z,97688.16
2023-04-10T15:50:16.144Z,97681.38
2023-04-10T16:00:19.006Z,97669.56
2023-04-10T16:10:21.662Z,97660.47
2023-04-10T16:20:24.080Z,97647.50
2023-04-10T16:30:26.347Z,97640.00
2023-04-10T16:40:33.076Z,97629.53
2023-04-10T16:50:38.681Z,97630.34
2023-04-10T17:00:41.107Z,97610.91
2023-04-10T17:10:43.536Z,97595.69
2023-04-10T17:20:48.150Z,97596.19
2023-04-10T17:30:50.608Z,97594.25
2023-04-10T17:40:53.009Z,97576.53
2023-04-10T17:50:55.521Z,97578.63
2023-04-10T18:00:57.854Z,97577.25
2023-04-10T18:11:00.185Z,97576.06
2023-04-10T18:21:04.098Z,97590.03
2023-04-10T18:31:06.665Z,97589.88
2023-04-10T18:41:09.099Z,97599.03
2023-04-10T18:51:11.894Z,97592.38
2023-04-10T19:01:14.415Z,97583.28
2023-04-10T19:11:18.023Z,97581.63
2023-04-10T19:21:20.472Z,97569.78
2023-04-10T19:31:24.639Z,97569.88
2023-04-10T19:41:28.148Z,97554.88
2023-04-10T19:51:30.549Z,97561.41
2023-04-10T20:01:33.925Z,97548.13
2023-04-10T20:11:36.528Z,97535.53
2023-04-10T20:21:38.862Z,97511.16
2023-04-10T20:40:09.514Z,97487.78
2023-04-10T20:50:12.982Z,97457.69
2023-04-10T21:00:16.160Z,97440.66
2023-04-10T21:10:18.488Z,97424.97
2023-04-10T21:20:20.777Z,97410.31
2023-04-10T21:30:23.081Z,97402.25
2023-04-10T21:40:25.676Z,97376.19
2023-04-10T21:50:28.029Z,97352.00
2023-04-10T22:00:30.783Z,97358.97
2023-04-10T22:10:33.049Z,97333.56
2023-04-10T22:20:35.517Z,97316.72
2023-04-10T22:30:37.806Z,97320.63
2023-04-10T22:40:40.169Z,97286.63
2023-04-10T22:50:42.558Z,97234.13
2023-04-10T23:00:44.944Z,97207.47
2023-04-10T23:10:47.174Z,97205.38
2023-04-10T23:20:50.659Z,97199.50
2023-04-10T23:30:53.181Z,97184.91
2023-04-10T23:40:55.513Z,97141.69
2023-04-10T23:51:05.505Z,97149.63
